sensor_id;sensor_type;location;lat;lon;timestamp;pressure;altitude;pressure_sealevel;temperature;humidity
75359;BME280;64046;51.978;5.934;2023-05-17T00:01:23;102330.63;;;13.30;97.85
75359;BME280;64046;51.978;5.934;2023-05-17T00:03:55;102324.16;;;13.42;97.79
75359;BME280;64046;51.978;5.934;2023-05-17T00:06:27;102321.56;;;13.40;97.86
75359;BME280;64046;51.978;5.934;2023-05-17T00:08:57;102326.31;;;13.27;98.25
75359;BME280;64046;51.978;5.934;2023-05-17T00:11:27;102324.66;;;13.25;98.44
75359;BME280;64046;51.978;5.934;2023-05-17T00:14:00;102325.03;;;13.41;98.35
75359;BME280;64046;51.978;5.934;2023-05-17T00:16:29;102316.75;;;13.25;99.01
75359;BME280;64046;51.978;5.934;2023-05-17T00:19:01;102316.44;;;13.36;99.03
75359;BME280;64046;51.978;5.934;2023-05-17T00:21:30;102317.63;;;13.25;99.51
75359;BME280;64046;51.978;5.934;2023-05-17T00:24:00;102321.31;;;13.20;99.74
75359;BME280;64046;51.978;5.934;2023-05-17T00:26:33;102319.94;;;13.36;99.67
75359;BME280;64046;51.978;5.934;2023-05-17T00:29:05;102316.13;;;13.16;100.00
75359;BME280;64046;51.978;5.934;2023-05-17T00:31:37;102323.13;;;13.18;100.00
75359;BME280;64046;51.978;5.934;2023-05-17T00:34:10;102324.50;;;13.29;100.00
75359;BME280;64046;51.978;5.934;2023-05-17T00:36:41;102325.38;;;13.30;100.00
75359;BME280;64046;51.978;5.934;2023-05-17T00:39:14;102318.94;;;13.10;100.00
75359;BME280;64046;51.978;5.934;2023-05-17T00:41:43;102325.94;;;13.11;100.00
75359;BME280;64046;51.978;5.934;2023-05-17T00:44:14;102315.56;;;13.07;100.00
75359;BME280;64046;51.978;5.934;2023-05-17T00:46:45;102320.09;;;13.02;100.00
75359;BME280;64046;51.978;5.934;2023-05-17T00:49:24;102323.16;;;13.16;100.00
75359;BME280;64046;51.978;5.934;2023-05-17T00:51:54;102321.94;;;13.00;100.00
75359;BME280;64046;51.978;5.934;2023-05-17T00:54:24;102321.00;;;13.01;100.00
75359;BME280;64046;51.978;5.934;2023-05-17T00:56:54;102318.56;;;12.94;100.00
75359;BME280;64046;51.978;5.934;2023-05-17T00:59:27;102318.41;;;12.99;100.00
75359;BME280;64046;51.978;5.934;2023-05-17T01:01:58;102314.78;;;13.03;100.00
75359;BME280;64046;51.978;5.934;2023-05-17T01:04:32;102318.00;;;13.13;100.00
75359;BME280;64046;51.978;5.934;2023-05-17T01:07:05;102320.63;;;13.13;100.00
75359;BME280;64046;51.978;5.934;2023-05-17T01:09:35;102318.38;;;13.01;100.00
75359;BME280;64046;51.978;5.934;2023-05-17T01:12:14;102318.84;;;13.13;100.00
75359;BME280;64046;51.978;5.934;2023-05-17T01:14:52;102312.59;;;13.18;100.00
75359;BME280;64046;51.978;5.934;2023-05-17T01:17:34;102308.19;;;13.18;100.00
75359;BME280;64046;51.978;5.934;2023-05-17T01:20:18;102307.31;;;13.18;100.00
75359;BME280;64046;51.978;5.934;2023-05-17T01:23:05;102306.38;;;13.20;100.00
75359;BME280;64046;51.978;5.934;2023-05-17T01:25:53;102308.06;;;13.23;100.00
75359;BME280;64046;51.978;5.934;2023-05-17T01:28:30;102314.47;;;13.14;100.00
75359;BME280;64046;51.978;5.934;2023-05-17T01:31:03;102322.00;;;12.96;100.00
75359;BME280;64046;51.978;5.934;2023-05-17T01:33:37;102319.19;;;13.03;100.00
75359;BME280;64046;51.978;5.934;2023-05-17T01:36:07;102314.94;;;12.98;100.00
75359;BME280;64046;51.978;5.934;2023-05-17T01:38:37;102311.34;;;13.01;100.00
75359;BME280;64046;51.978;5.934;2023-05-17T01:41:15;102312.78;;;13.11;100.00
75359;BME280;64046;51.978;5.934;2023-05-17T01:43:58;102314.53;;;13.11;100.00
75359;BME280;64046;51.978;5.934;2023-05-17T01:46:34;102315.56;;;13.07;100.00
75359;BME280;64046;51.978;5.934;2023-05-17T01:49:11;102315.56;;;13.07;100.00
75359;BME280;64046;51.978;5.934;2023-05-17T01:51:47;102310.25;;;13.08;100.00
75359;BME280;64046;51.978;5.934;2023-05-17T01:54:22;102311.19;;;13.06;100.00
75359;BME280;64046;51.978;5.934;2023-05-17T01:56:57;102311.06;;;13.10;100.00
75359;BME280;64046;51.978;5.934;2023-05-17T01:59:30;102314.41;;;13.15;100.00
75359;BME280;64046;51.978;5.934;2023-05-17T02:02:04;102308.53;;;13.07;100.00
75359;BME280;64046;51.978;5.934;2023-05-17T02:04:41;102309.28;;;13.11;100.00
75359;BME280;64046;51.978;5.934;2023-05-17T02:07:14;102324.13;;;13.13;100.00
75359;BME280;64046;51.978;5.934;2023-05-17T02:09:44;102315.25;;;13.16;100.00
75359;BME280;64046;51.978;5.934;2023-05-17T02:12:15;102317.84;;;13.18;100.00
75359;BME280;64046;51.978;5.934;2023-05-17T02:14:53;102314.47;;;13.42;100.00
75359;BME280;64046;51.978;5.934;2023-05-17T02:17:24;102321.50;;;13.42;100.00
75359;BME280;64046;51.978;5.934;2023-05-17T02:19:56;102321.91;;;13.28;100.00
75359;BME280;64046;51.978;5.934;2023-05-17T02:22:29;102322.56;;;13.36;100.00
75359;BME280;64046;51.978;5.934;2023-05-17T02:25:00;102323.91;;;13.21;100.00
75359;BME280;64046;51.978;5.934;2023-05-17T02:27:30;102321.25;;;13.21;100.00
75359;BME280;64046;51.978;5.934;2023-05-17T02:30:04;102334.94;;;13.32;100.00
75359;BME280;64046;51.978;5.934;2023-05-17T02:32:37;102338.09;;;13.15;100.00
75359;BME280;64046;51.978;5.934;2023-05-17T02:35:08;102332.44;;;13.28;100.00
75359;BME280;64046;51.978;5.934;2023-05-17T02:37:38;102333.53;;;13.21;100.00
75359;BME280;64046;51.978;5.934;2023-05-17T02:40:10;102334.88;;;13.36;100.00
75359;BME280;64046;51.978;5.934;2023-05-17T02:42:40;102349.28;;;13.22;100.00
75359;BME280;64046;51.978;5.934;2023-05-17T02:45:13;102342.56;;;13.42;100.00
75359;BME280;64046;51.978;5.934;2023-05-17T02:47:49;102342.84;;;13.32;100.00
75359;BME280;64046;51.978;5.934;2023-05-17T02:50:23;102348.00;;;13.37;100.00
75359;BME280;64046;51.978;5.934;2023-05-17T02:52:57;102344.38;;;13.41;100.00
75359;BME280;64046;51.978;5.934;2023-05-17T02:55:29;102340.25;;;13.31;100.00
75359;BME280;64046;51.978;5.934;2023-05-17T02:58:07;102353.63;;;13.53;100.00
75359;BME280;64046;51.978;5.934;2023-05-17T03:00:46;102359.75;;;13.54;100.00
75359;BME280;64046;51.978;5.934;2023-05-17T03:03:17;102368.97;;;13.40;100.00
75359;BME280;64046;51.978;5.934;2023-05-17T03:05:58;102372.88;;;13.55;100.00
75359;BME280;64046;51.978;5.934;2023-05-17T03:08:36;102374.06;;;13.45;100.00
75359;BME280;64046;51.978;5.934;2023-05-17T03:11:08;102375.75;;;13.47;100.00
75359;BME280;64046;51.978;5.934;2023-05-17T03:13:41;102378.06;;;13.58;100.00
75359;BME280;64046;51.978;5.934;2023-05-17T03:16:16;102370.16;;;13.58;100.00
75359;BME280;64046;51.978;5.934;2023-05-17T03:18:52;102377.66;;;13.42;100.00
75359;BME280;64046;51.978;5.934;2023-05-17T03:21:23;102378.59;;;13.41;100.00
75359;BME280;64046;51.978;5.934;2023-05-17T03:24:02;102383.59;;;13.49;100.00
75359;BME280;64046;51.978;5.934;2023-05-17T03:26:32;102389.25;;;13.37;100.00
75359;BME280;64046;51.978;5.934;2023-05-17T03:29:03;102381.81;;;13.49;100.00
75359;BME280;64046;51.978;5.934;2023-05-17T03:31:38;102387.06;;;13.51;100.00
75359;BME280;64046;51.978;5.934;2023-05-17T03:34:08;102389.19;;;13.40;100.00
75359;BME280;64046;51.978;5.934;2023-05-17T03:36:49;102389.25;;;13.37;100.00
75359;BME280;64046;51.978;5.934;2023-05-17T03:39:22;102397.81;;;13.43;100.00
75359;BME280;64046;51.978;5.934;2023-05-17T03:41:53;102399.13;;;13.58;100.00
75359;BME280;64046;51.978;5.934;2023-05-17T03:44:25;102405.31;;;13.57;100.00
75359;BME280;64046;51.978;5.934;2023-05-17T03:46:58;102408.56;;;13.65;100.00
75359;BME280;64046;51.978;5.934;2023-05-17T03:49:30;102408.69;;;13.61;100.00
75359;BME280;64046;51.978;5.934;2023-05-17T03:52:00;102413.34;;;13.53;100.00
75359;BME280;64046;51.978;5.934;2023-05-17T03:54:33;102412.16;;;13.63;100.00
75359;BME280;64046;51.978;5.934;2023-05-17T03:57:07;102411.03;;;13.70;100.00
75359;BME280;64046;51.978;5.934;2023-05-17T03:59:41;102415.25;;;13.76;100.00
75359;BME280;64046;51.978;5.934;2023-05-17T04:02:15;102419.69;;;13.74;100.00
75359;BME280;64046;51.978;5.934;2023-05-17T04:04:48;102423.78;;;13.84;100.00
75359;BME280;64046;51.978;5.934;2023-05-17T04:07:24;102431.38;;;13.65;100.00
75359;BME280;64046;51.978;5.934;2023-05-17T04:09:55;102425.78;;;13.76;100.00
75359;BME280;64046;51.978;5.934;2023-05-17T04:12:31;102425.75;;;13.77;100.00
75359;BME280;64046;51.978;5.934;2023-05-17T04:15:01;102428.91;;;13.60;100.00
75359;BME280;64046;51.978;5.934;2023-05-17T04:17:34;102428.47;;;13.74;100.00
75359;BME280;64046;51.978;5.934;2023-05-17T04:20:12;102434.50;;;13.78;100.00
75359;BME280;64046;51.978;5.934;2023-05-17T04:22:43;102439.53;;;13.57;100.00
75359;BME280;64046;51.978;5.934;2023-05-17T04:25:15;102439.41;;;13.62;100.00
75359;BME280;64046;51.978;5.934;2023-05-17T04:27:46;102440.06;;;13.69;100.00
75359;BME280;64046;51.978;5.934;2023-05-17T04:30:20;102440.97;;;13.67;100.00
75359;BME280;64046;51.978;5.934;2023-05-17T04:32:58;102445.19;;;13.73;99.47
75359;BME280;64046;51.978;5.934;2023-05-17T04:35:35;102450.63;;;13.69;99.82
75359;BME280;64046;51.978;5.934;2023-05-17T04:38:09;102451.81;;;13.58;100.00
75359;BME280;64046;51.978;5.934;2023-05-17T04:40:44;102458.94;;;13.55;100.00
75359;BME280;64046;51.978;5.934;2023-05-17T04:43:16;102458.19;;;13.51;100.00
75359;BME280;64046;51.978;5.934;2023-05-17T04:45:47;102454.50;;;13.55;99.85
75359;BME280;64046;51.978;5.934;2023-05-17T04:48:19;102461.81;;;13.75;99.26
75359;BME280;64046;51.978;5.934;2023-05-17T04:50:51;102462.84;;;13.71;99.01
75359;BME280;64046;51.978;5.934;2023-05-17T04:53:24;102468.31;;;13.92;98.48
75359;BME280;64046;51.978;5.934;2023-05-17T04:55:56;102470.19;;;13.88;98.39
75359;BME280;64046;51.978;5.934;2023-05-17T04:58:26;102471.66;;;13.97;98.30
75359;BME280;64046;51.978;5.934;2023-05-17T05:00:58;102478.44;;;14.06;98.00
75359;BME280;64046;51.978;5.934;2023-05-17T05:03:32;102477.56;;;14.32;96.65
75359;BME280;64046;51.978;5.934;2023-05-17T05:06:05;102481.00;;;14.34;96.84
75359;BME280;64046;51.978;5.934;2023-05-17T05:08:37;102488.22;;;14.29;96.98
75359;BME280;64046;51.978;5.934;2023-05-17T05:11:09;102486.22;;;14.35;96.21
75359;BME280;64046;51.978;5.934;2023-05-17T05:13:45;102487.38;;;14.53;95.20
75359;BME280;64046;51.978;5.934;2023-05-17T05:16:20;102490.03;;;14.53;94.77
75359;BME280;64046;51.978;5.934;2023-05-17T05:18:53;102498.31;;;14.69;94.09
75359;BME280;64046;51.978;5.934;2023-05-17T05:21:23;102496.81;;;14.61;93.74
75359;BME280;64046;51.978;5.934;2023-05-17T05:23:55;102508.22;;;14.61;93.31
75359;BME280;64046;51.978;5.934;2023-05-17T05:26:28;102505.38;;;14.69;92.63
75359;BME280;64046;51.978;5.934;2023-05-17T05:29:02;102513.50;;;14.88;91.57
75359;BME280;64046;51.978;5.934;2023-05-17T05:31:34;102514.56;;;14.82;91.02
75359;BME280;64046;51.978;5.934;2023-05-17T05:34:11;102515.78;;;14.99;89.72
75359;BME280;64046;51.978;5.934;2023-05-17T05:36:41;102517.16;;;14.84;89.40
75359;BME280;64046;51.978;5.934;2023-05-17T05:39:13;102522.25;;;14.90;88.99
75359;BME280;64046;51.978;5.934;2023-05-17T05:41:43;102527.47;;;14.92;88.77
75359;BME280;64046;51.978;5.934;2023-05-17T05:44:13;102530.16;;;14.90;88.31
75359;BME280;64046;51.978;5.934;2023-05-17T05:46:44;102543.88;;;15.00;87.98
75359;BME280;64046;51.978;5.934;2023-05-17T05:49:29;102547.00;;;15.11;86.65
75359;BME280;64046;51.978;5.934;2023-05-17T05:52:09;102542.00;;;15.03;86.95
75359;BME280;64046;51.978;5.934;2023-05-17T05:54:40;102551.16;;;14.93;87.40
75359;BME280;64046;51.978;5.934;2023-05-17T05:57:13;102556.34;;;14.96;87.40
75359;BME280;64046;51.978;5.934;2023-05-17T05:59:49;102560.91;;;15.16;86.61
75359;BME280;64046;51.978;5.934;2023-05-17T06:02:26;102556.28;;;14.98;86.47
75359;BME280;64046;51.978;5.934;2023-05-17T06:04:58;102563.00;;;15.07;84.96
75359;BME280;64046;51.978;5.934;2023-05-17T06:07:29;102567.91;;;14.92;84.86
75359;BME280;64046;51.978;5.934;2023-05-17T06:09:59;102567.25;;;15.11;84.34
75359;BME280;64046;51.978;5.934;2023-05-17T06:12:31;102577.00;;;15.09;83.25
75359;BME280;64046;51.978;5.934;2023-05-17T06:15:02;102579.81;;;15.29;82.63
75359;BME280;64046;51.978;5.934;2023-05-17T06:17:41;102574.38;;;15.34;80.85
75359;BME280;64046;51.978;5.934;2023-05-17T06:20:14;102581.44;;;15.33;80.64
75359;BME280;64046;51.978;5.934;2023-05-17T06:22:44;102587.13;;;15.21;80.31
75359;BME280;64046;51.978;5.934;2023-05-17T06:25:21;102582.22;;;15.35;79.87
75359;BME280;64046;51.978;5.934;2023-05-17T06:28:02;102586.91;;;15.52;78.71
75359;BME280;64046;51.978;5.934;2023-05-17T06:30:37;102587.28;;;15.42;79.38
75359;BME280;64046;51.978;5.934;2023-05-17T06:33:09;102584.19;;;15.30;79.35
75359;BME280;64046;51.978;5.934;2023-05-17T06:35:43;102587.19;;;15.45;78.44
75359;BME280;64046;51.978;5.934;2023-05-17T06:38:15;102587.44;;;15.37;78.43
75359;BME280;64046;51.978;5.934;2023-05-17T06:40:45;102588.09;;;15.18;79.10
75359;BME280;64046;51.978;5.934;2023-05-17T06:43:17;102593.38;;;15.18;79.55
75359;BME280;64046;51.978;5.934;2023-05-17T06:45:57;102593.56;;;15.14;79.75
75359;BME280;64046;51.978;5.934;2023-05-17T06:48:26;102587.31;;;15.16;80.12
75359;BME280;64046;51.978;5.934;2023-05-17T06:51:02;102595.59;;;15.56;78.51
75359;BME280;64046;51.978;5.934;2023-05-17T06:53:34;102600.34;;;15.70;78.77
75359;BME280;64046;51.978;5.934;2023-05-17T06:56:04;102592.72;;;15.86;77.26
75359;BME280;64046;51.978;5.934;2023-05-17T06:58:40;102602.47;;;16.07;76.15
75359;BME280;64046;51.978;5.934;2023-05-17T07:01:11;102603.09;;;16.14;75.05
75359;BME280;64046;51.978;5.934;2023-05-17T07:03:43;102609.22;;;16.16;74.10
75359;BME280;64046;51.978;5.934;2023-05-17T07:06:21;102603.00;;;16.39;72.68
75359;BME280;64046;51.978;5.934;2023-05-17T07:08:52;102596.94;;;16.36;72.54
75359;BME280;64046;51.978;5.934;2023-05-17T07:11:27;102604.88;;;16.36;71.91
75359;BME280;64046;51.978;5.934;2023-05-17T07:13:58;102607.84;;;16.28;71.17
75359;BME280;64046;51.978;5.934;2023-05-17T07:16:31;102609.91;;;16.43;68.54
75359;BME280;64046;51.978;5.934;2023-05-17T07:19:04;102618.31;;;16.31;65.71
75359;BME280;64046;51.978;5.934;2023-05-17T07:21:48;102616.09;;;16.42;63.12
75359;BME280;64046;51.978;5.934;2023-05-17T07:24:19;102614.19;;;16.24;63.00
75359;BME280;64046;51.978;5.934;2023-05-17T07:26:52;102610.19;;;16.36;62.18
75359;BME280;64046;51.978;5.934;2023-05-17T07:29:30;102618.44;;;16.50;62.58
75359;BME280;64046;51.978;5.934;2023-05-17T07:32:04;102613.94;;;16.52;63.02
75359;BME280;64046;51.978;5.934;2023-05-17T07:34:57;102627.22;;;16.73;61.49
75359;BME280;64046;51.978;5.934;2023-05-17T07:37:46;102627.34;;;16.70;60.16
75359;BME280;64046;51.978;5.934;2023-05-17T07:40:29;102630.47;;;16.57;59.95
75359;BME280;64046;51.978;5.934;2023-05-17T07:43:10;102631.03;;;16.66;59.49
75359;BME280;64046;51.978;5.934;2023-05-17T07:45:42;102628.63;;;17.04;58.96
75359;BME280;64046;51.978;5.934;2023-05-17T07:48:14;102632.91;;;17.06;58.14
75359;BME280;64046;51.978;5.934;2023-05-17T07:50:47;102637.47;;;17.03;57.93
75359;BME280;64046;51.978;5.934;2023-05-17T07:53:20;102631.78;;;17.12;56.95
75359;BME280;64046;51.978;5.934;2023-05-17T07:55:58;102648.94;;;17.03;56.95
75359;BME280;64046;51.978;5.934;2023-05-17T07:58:41;102648.41;;;16.95;54.83
75359;BME280;64046;51.978;5.934;2023-05-17T08:01:14;102645.25;;;16.63;55.49
75359;BME280;64046;51.978;5.934;2023-05-17T08:03:44;102645.25;;;16.63;55.53
75359;BME280;64046;51.978;5.934;2023-05-17T08:06:19;102642.22;;;16.94;54.85
75359;BME280;64046;51.978;5.934;2023-05-17T08:08:52;102658.06;;;16.96;53.83
75359;BME280;64046;51.978;5.934;2023-05-17T08:11:22;102650.78;;;16.79;53.01
75359;BME280;64046;51.978;5.934;2023-05-17T08:13:55;102661.59;;;16.52;53.70
75359;BME280;64046;51.978;5.934;2023-05-17T08:16:25;102651.00;;;16.52;54.01
75359;BME280;64046;51.978;5.934;2023-05-17T08:18:55;102654.69;;;16.48;54.21
75359;BME280;64046;51.978;5.934;2023-05-17T08:21:26;102657.75;;;16.37;54.43
75359;BME280;64046;51.978;5.934;2023-05-17T08:24:08;102651.88;;;16.73;53.94
75359;BME280;64046;51.978;5.934;2023-05-17T08:26:42;102650.63;;;16.84;52.37
75359;BME280;64046;51.978;5.934;2023-05-17T08:29:22;102650.84;;;16.77;51.24
75359;BME280;64046;51.978;5.934;2023-05-17T08:31:56;102645.31;;;16.61;51.40
75359;BME280;64046;51.978;5.934;2023-05-17T08:34:26;102659.06;;;16.49;51.00
75359;BME280;64046;51.978;5.934;2023-05-17T08:37:03;102652.47;;;16.59;50.57
75359;BME280;64046;51.978;5.934;2023-05-17T08:39:37;102657.69;;;16.61;50.07
75359;BME280;64046;51.978;5.934;2023-05-17T08:42:07;102644.41;;;16.63;49.79
75359;BME280;64046;51.978;5.934;2023-05-17T08:44:38;102654.31;;;16.80;49.34
75359;BME280;64046;51.978;5.934;2023-05-17T08:47:09;102660.19;;;17.08;48.15
75359;BME280;64046;51.978;5.934;2023-05-17T08:49:51;102661.66;;;16.95;47.56
75359;BME280;64046;51.978;5.934;2023-05-17T08:52:21;102668.19;;;16.85;47.68
75359;BME280;64046;51.978;5.934;2023-05-17T08:54:57;102671.56;;;16.90;47.45
75359;BME280;64046;51.978;5.934;2023-05-17T08:57:33;102657.88;;;17.01;47.45
75359;BME280;64046;51.978;5.934;2023-05-17T09:00:12;102661.94;;;17.30;46.35
75359;BME280;64046;51.978;5.934;2023-05-17T09:02:51;102659.34;;;17.28;45.96
75359;BME280;64046;51.978;5.934;2023-05-17T09:05:24;102656.03;;;17.44;45.76
75359;BME280;64046;51.978;5.934;2023-05-17T09:07:55;102662.59;;;17.35;45.64
75359;BME280;64046;51.978;5.934;2023-05-17T09:10:31;102661.72;;;17.35;45.30
75359;BME280;64046;51.978;5.934;2023-05-17T09:13:02;102669.59;;;17.16;44.95
75359;BME280;64046;51.978;5.934;2023-05-17T09:15:43;102673.59;;;17.26;44.81
75359;BME280;64046;51.978;5.934;2023-05-17T09:18:15;102680.22;;;17.16;44.52
75359;BME280;64046;51.978;5.934;2023-05-17T09:20:50;102670.13;;;17.44;44.04
75359;BME280;64046;51.978;5.934;2023-05-17T09:23:23;102681.16;;;17.35;44.23
75359;BME280;64046;51.978;5.934;2023-05-17T09:26:02;102685.31;;;17.41;44.06
75359;BME280;64046;51.978;5.934;2023-05-17T09:28:38;102685.84;;;17.28;44.40
75359;BME280;64046;51.978;5.934;2023-05-17T09:31:17;102677.28;;;17.22;43.69
75359;BME280;64046;51.978;5.934;2023-05-17T09:33:51;102677.41;;;17.19;43.42
75359;BME280;64046;51.978;5.934;2023-05-17T09:36:30;102683.78;;;17.15;43.06
75359;BME280;64046;51.978;5.934;2023-05-17T09:39:03;102664.31;;;17.36;43.03
75359;BME280;64046;51.978;5.934;2023-05-17T09:41:45;102675.56;;;17.62;42.92
75359;BME280;64046;51.978;5.934;2023-05-17T09:44:24;102667.28;;;17.70;41.97
75359;BME280;64046;51.978;5.934;2023-05-17T09:46:57;102669.63;;;17.76;41.99
75359;BME280;64046;51.978;5.934;2023-05-17T09:49:30;102662.91;;;17.88;41.42
75359;BME280;64046;51.978;5.934;2023-05-17T09:52:08;102669.13;;;18.07;41.27
75359;BME280;64046;51.978;5.934;2023-05-17T09:54:56;102675.88;;;18.14;41.46
75359;BME280;64046;51.978;5.934;2023-05-17T09:57:37;102682.53;;;18.04;41.58
75359;BME280;64046;51.978;5.934;2023-05-17T10:00:31;102681.09;;;17.97;41.22
75359;BME280;64046;51.978;5.934;2023-05-17T10:03:03;102673.06;;;17.78;41.37
75359;BME280;64046;51.978;5.934;2023-05-17T10:05:40;102667.84;;;17.76;41.10
75359;BME280;64046;51.978;5.934;2023-05-17T10:08:14;102665.78;;;17.83;41.16
75359;BME280;64046;51.978;5.934;2023-05-17T10:10:54;102661.09;;;18.09;40.83
75359;BME280;64046;51.978;5.934;2023-05-17T10:13:32;102660.00;;;18.32;40.24
75359;BME280;64046;51.978;5.934;2023-05-17T10:16:15;102667.34;;;18.27;39.77
75359;BME280;64046;51.978;5.934;2023-05-17T10:18:50;102674.00;;;17.97;40.13
75359;BME280;64046;51.978;5.934;2023-05-17T10:21:23;102674.28;;;17.91;39.63
75359;BME280;64046;51.978;5.934;2023-05-17T10:23:59;102663.81;;;18.07;39.54
75359;BME280;64046;51.978;5.934;2023-05-17T10:26:48;102665.75;;;18.23;39.25
75359;BME280;64046;51.978;5.934;2023-05-17T10:29:35;102667.19;;;18.30;39.09
75359;BME280;64046;51.978;5.934;2023-05-17T10:32:08;102667.63;;;18.21;38.84
75359;BME280;64046;51.978;5.934;2023-05-17T10:34:44;102669.03;;;18.28;38.91
75359;BME280;64046;51.978;5.934;2023-05-17T10:37:17;102665.44;;;18.48;38.81
75359;BME280;64046;51.978;5.934;2023-05-17T10:39:49;102657.97;;;18.56;38.64
75359;BME280;64046;51.978;5.934;2023-05-17T10:42:24;102662.63;;;18.51;38.87
75359;BME280;64046;51.978;5.934;2023-05-17T10:44:59;102664.69;;;18.63;38.14
75359;BME280;64046;51.978;5.934;2023-05-17T10:47:32;102656.25;;;18.55;38.03
75359;BME280;64046;51.978;5.934;2023-05-17T10:50:04;102656.97;;;18.59;37.84
75359;BME280;64046;51.978;5.934;2023-05-17T10:52:56;102652.25;;;18.83;37.19
75359;BME280;64046;51.978;5.934;2023-05-17T10:55:37;102654.50;;;18.73;37.29
75359;BME280;64046;51.978;5.934;2023-05-17T10:58:16;102650.75;;;18.77;37.68
75359;BME280;64046;51.978;5.934;2023-05-17T11:01:03;102646.41;;;18.94;37.45
75359;BME280;64046;51.978;5.934;2023-05-17T11:03:37;102651.22;;;18.85;36.89
75359;BME280;64046;51.978;5.934;2023-05-17T11:06:16;102639.72;;;18.85;36.53
75359;BME280;64046;51.978;5.934;2023-05-17T11:09:08;102654.53;;;18.91;36.32
75359;BME280;64046;51.978;5.934;2023-05-17T11:12:05;102637.06;;;18.85;36.32
75359;BME280;64046;51.978;5.934;2023-05-17T11:14:46;102633.25;;;18.73;36.77
75359;BME280;64046;51.978;5.934;2023-05-17T11:17:23;102632.84;;;18.81;37.15
75359;BME280;64046;51.978;5.934;2023-05-17T11:20:01;102637.59;;;18.93;37.04
75359;BME280;64046;51.978;5.934;2023-05-17T11:22:40;102634.53;;;19.01;36.75
75359;BME280;64046;51.978;5.934;2023-05-17T11:25:14;102645.28;;;18.80;37.21
75359;BME280;64046;51.978;5.934;2023-05-17T11:27:46;102645.72;;;18.71;37.18
75359;BME280;64046;51.978;5.934;2023-05-17T11:30:21;102637.38;;;18.61;36.56
75359;BME280;64046;51.978;5.934;2023-05-17T11:33:02;102645.88;;;18.68;36.93
75359;BME280;64046;51.978;5.934;2023-05-17T11:35:37;102643.03;;;18.73;36.88
75359;BME280;64046;51.978;5.934;2023-05-17T11:38:15;102631.34;;;18.75;36.55
75359;BME280;64046;51.978;5.934;2023-05-17T11:40:48;102641.41;;;18.88;36.33
75359;BME280;64046;51.978;5.934;2023-05-17T11:43:19;102632.34;;;18.92;36.07
75359;BME280;64046;51.978;5.934;2023-05-17T11:45:52;102629.22;;;19.01;36.21
75359;BME280;64046;51.978;5.934;2023-05-17T11:48:29;102637.09;;;19.02;35.54
75359;BME280;64046;51.978;5.934;2023-05-17T11:51:01;102644.28;;;18.83;35.76
75359;BME280;64046;51.978;5.934;2023-05-17T11:53:32;102636.22;;;18.67;35.80
75359;BME280;64046;51.978;5.934;2023-05-17T11:56:13;102643.88;;;18.73;35.74
75359;BME280;64046;51.978;5.934;2023-05-17T11:58:50;102637.66;;;18.92;35.10
75359;BME280;64046;51.978;5.934;2023-05-17T12:01:20;102631.72;;;18.87;35.18
75359;BME280;64046;51.978;5.934;2023-05-17T12:03:59;102640.31;;;19.09;35.21
75359;BME280;64046;51.978;5.934;2023-05-17T12:06:36;102652.19;;;19.02;35.24
75359;BME280;64046;51.978;5.934;2023-05-17T12:09:14;102641.00;;;18.95;35.57
75359;BME280;64046;51.978;5.934;2023-05-17T12:11:46;102636.91;;;18.71;35.95
75359;BME280;64046;51.978;5.934;2023-05-17T12:14:16;102639.13;;;18.80;36.22
75359;BME280;64046;51.978;5.934;2023-05-17T12:16:51;102635.41;;;19.01;36.21
75359;BME280;64046;51.978;5.934;2023-05-17T12:19:33;102630.63;;;19.08;36.24
75359;BME280;64046;51.978;5.934;2023-05-17T12:22:17;102631.56;;;19.07;36.41
75359;BME280;64046;51.978;5.934;2023-05-17T12:24:48;102619.22;;;18.89;37.00
75359;BME280;64046;51.978;5.934;2023-05-17T12:27:26;102627.28;;;19.05;36.66
75359;BME280;64046;51.978;5.934;2023-05-17T12:29:57;102625.97;;;18.77;36.85
75359;BME280;64046;51.978;5.934;2023-05-17T12:32:30;102627.38;;;18.84;36.57
75359;BME280;64046;51.978;5.934;2023-05-17T12:35:03;102625.31;;;18.91;36.66
75359;BME280;64046;51.978;5.934;2023-05-17T12:37:41;102629.44;;;18.96;36.57
75359;BME280;64046;51.978;5.934;2023-05-17T12:40:15;102626.97;;;18.93;36.68
75359;BME280;64046;51.978;5.934;2023-05-17T12:42:47;102642.53;;;18.82;36.49
75359;BME280;64046;51.978;5.934;2023-05-17T12:45:21;102629.66;;;18.74;36.07
75359;BME280;64046;51.978;5.934;2023-05-17T12:47:53;102632.44;;;18.71;36.43
75359;BME280;64046;51.978;5.934;2023-05-17T12:50:30;102623.88;;;18.83;36.10
75359;BME280;64046;51.978;5.934;2023-05-17T12:53:14;102624.31;;;18.93;36.18
75359;BME280;64046;51.978;5.934;2023-05-17T12:55:43;102634.56;;;18.82;36.13
75359;BME280;64046;51.978;5.934;2023-05-17T12:58:15;102631.28;;;18.77;35.90
75359;BME280;64046;51.978;5.934;2023-05-17T13:01:04;102623.13;;;18.99;35.49
75359;BME280;64046;51.978;5.934;2023-05-17T13:03:39;102640.72;;;18.82;36.00
75359;BME280;64046;51.978;5.934;2023-05-17T13:06:14;102617.91;;;18.97;35.85
75359;BME280;64046;51.978;5.934;2023-05-17T13:08:57;102620.06;;;19.07;35.87
75359;BME280;64046;51.978;5.934;2023-05-17T13:11:27;102617.03;;;18.97;36.08
75359;BME280;64046;51.978;5.934;2023-05-17T13:14:31;102626.03;;;18.94;35.63
75359;BME280;64046;51.978;5.934;2023-05-17T13:16:58;102628.13;;;18.88;35.43
75359;BME280;64046;51.978;5.934;2023-05-17T13:19:29;102618.00;;;18.77;35.48
75359;BME280;64046;51.978;5.934;2023-05-17T13:22:03;102613.13;;;18.87;35.18
75359;BME280;64046;51.978;5.934;2023-05-17T13:24:33;102611.59;;;18.81;35.17
75359;BME280;64046;51.978;5.934;2023-05-17T13:27:08;102608.91;;;19.00;35.17